createdAt,value
2022-09-06T00:00:46.829Z,4.20
2022-09-06T00:01:46.820Z,5.40
2022-09-06T00:02:46.877Z,4.70
2022-09-06T00:03:46.860Z,4.90
2022-09-06T00:04:46.800Z,4.10
2022-09-06T00:05:46.795Z,4.00
2022-09-06T00:06:46.787Z,4.80
2022-09-06T00:07:46.782Z,4.90
2022-09-06T00:08:46.777Z,5.60
2022-09-06T00:09:46.771Z,4.40
2022-09-06T00:10:46.761Z,4.50
2022-09-06T00:11:46.756Z,5.20
2022-09-06T00:12:46.747Z,4.10
2022-09-06T00:13:46.745Z,4.00
2022-09-06T00:14:46.737Z,5.90
2022-09-06T00:15:46.785Z,5.00
2022-09-06T00:16:46.723Z,7.50
2022-09-06T00:17:46.720Z,6.80
2022-09-06T00:18:46.717Z,4.80
2022-09-06T00:19:46.705Z,5.30
2022-09-06T00:20:46.799Z,6.40
2022-09-06T00:21:46.693Z,4.80
2022-09-06T00:22:46.685Z,4.50
2022-09-06T00:23:46.680Z,5.10
2022-09-06T00:24:46.672Z,4.80
2022-09-06T00:25:46.666Z,7.60
2022-09-06T00:26:46.662Z,6.20
2022-09-06T00:27:46.654Z,4.20
2022-09-06T00:28:46.646Z,4.80
2022-09-06T00:29:46.642Z,7.10
2022-09-06T00:30:46.664Z,6.70
2022-09-06T00:31:46.628Z,4.80
2022-09-06T00:32:46.619Z,6.20
2022-09-06T00:33:46.617Z,5.50
2022-09-06T00:34:46.606Z,5.10
2022-09-06T00:35:46.602Z,6.20
2022-09-06T00:36:46.594Z,6.60
2022-09-06T00:37:46.591Z,10.70
2022-09-06T00:38:46.582Z,4.70
2022-09-06T00:39:46.605Z,8.60
2022-09-06T00:40:46.567Z,6.20
2022-09-06T00:41:46.565Z,7.00
2022-09-06T00:42:46.562Z,6.70
2022-09-06T00:43:46.551Z,5.70
2022-09-06T00:44:46.548Z,4.50
2022-09-06T00:45:46.539Z,5.10
2022-09-06T00:46:46.529Z,4.40
2022-09-06T00:47:46.529Z,6.10
2022-09-06T00:48:46.515Z,4.20
2022-09-06T00:49:46.511Z,4.80
2022-09-06T00:50:46.503Z,4.80
2022-09-06T00:51:46.498Z,6.00
2022-09-06T00:52:46.490Z,6.70
2022-09-06T00:53:46.490Z,5.50
2022-09-06T00:54:46.476Z,5.60
2022-09-06T00:55:46.477Z,4.50
2022-09-06T00:56:46.463Z,6.80
2022-09-06T00:57:46.483Z,6.30
2022-09-06T00:58:46.455Z,10.80
2022-09-06T00:59:46.445Z,5.20
2022-09-06T01:00:46.438Z,5.20
2022-09-06T01:01:46.519Z,4.90
2022-09-06T01:02:46.630Z,6.80
2022-09-06T01:03:46.419Z,6.80
2022-09-06T01:04:46.410Z,7.50
2022-09-06T01:05:46.407Z,3.90
2022-09-06T01:06:46.398Z,8.30
2022-09-06T01:07:46.392Z,7.30
2022-09-06T01:08:46.387Z,5.80
2022-09-06T01:09:46.381Z,7.30
2022-09-06T01:10:46.372Z,6.70
2022-09-06T01:11:46.368Z,5.70
2022-09-06T01:12:46.357Z,8.80
2022-09-06T01:13:46.354Z,6.30
2022-09-06T01:14:46.344Z,5.20
2022-09-06T01:15:46.385Z,3.80
2022-09-06T01:16:46.331Z,4.80
2022-09-06T01:17:46.327Z,6.10
2022-09-06T01:18:46.321Z,6.60
2022-09-06T01:19:46.314Z,6.80
2022-09-06T01:20:46.306Z,5.60
2022-09-06T01:23:46.387Z,6.10
2022-09-06T01:24:46.278Z,6.50
2022-09-06T01:25:46.273Z,9.60
2022-09-06T01:26:46.265Z,5.50
2022-09-06T01:27:46.260Z,6.20
2022-09-06T01:28:46.252Z,7.70
2022-09-06T01:29:46.248Z,5.90
2022-09-06T01:30:46.338Z,5.80
2022-09-06T01:31:46.234Z,6.10
2022-09-06T01:32:46.226Z,5.60
2022-09-06T01:33:46.224Z,6.20
2022-09-06T01:34:46.215Z,8.70
2022-09-06T01:35:46.207Z,6.30
2022-09-06T01:37:08.453Z,6.50
2022-09-06T01:37:46.193Z,9.00
2022-09-06T01:38:46.186Z,8.60
2022-09-06T01:39:46.225Z,8.40
2022-09-06T01:40:46.173Z,6.00
2022-09-06T01:41:46.167Z,8.40
2022-09-06T01:42:46.159Z,13.70
2022-09-06T01:43:46.154Z,9.30
2022-09-06T01:44:46.150Z,8.10
2022-09-06T01:45:46.178Z,8.10
2022-09-06T01:46:46.132Z,9.00
2022-09-06T01:47:46.127Z,14.00
2022-09-06T01:48:46.118Z,6.70
2022-09-06T01:49:46.113Z,7.50
2022-09-06T01:50:46.105Z,7.60
2022-09-06T01:51:46.101Z,7.20
2022-09-06T01:52:46.090Z,7.40
2022-09-06T01:53:46.086Z,8.30
2022-09-06T01:54:46.078Z,7.50
2022-09-06T01:55:46.073Z,8.60
2022-09-06T01:56:46.065Z,11.10
2022-09-06T01:57:46.060Z,9.20
2022-09-06T01:58:46.050Z,7.80
2022-09-06T01:59:46.045Z,10.00
2022-09-06T02:00:46.038Z,7.90
2022-09-06T02:01:46.172Z,6.90
2022-09-06T02:02:46.095Z,7.00
2022-09-06T02:03:46.020Z,6.20
2022-09-06T02:04:46.013Z,7.20
2022-09-06T02:05:46.005Z,8.50
2022-09-06T02:06:45.998Z,7.60
2022-09-06T02:07:46.041Z,7.90
2022-09-06T02:08:45.983Z,9.40
2022-09-06T02:09:45.980Z,9.10
2022-09-06T02:10:45.971Z,7.30
2022-09-06T02:11:45.966Z,7.80
2022-09-06T02:12:45.957Z,7.80
2022-09-06T02:13:45.954Z,8.30
2022-09-06T02:14:45.945Z,8.30
2022-09-06T02:15:45.939Z,6.20
2022-09-06T02:16:45.985Z,8.60
2022-09-06T02:17:45.926Z,7.90
2022-09-06T02:18:45.917Z,8.10
2022-09-06T02:19:45.911Z,9.40
2022-09-06T02:20:45.915Z,9.50
2022-09-06T02:21:45.900Z,8.50
2022-09-06T02:22:45.894Z,9.50
2022-09-06T02:23:45.887Z,7.80
2022-09-06T02:24:45.879Z,7.30
2022-09-06T02:25:45.871Z,8.20
2022-09-06T02:26:45.864Z,7.00
2022-09-06T02:27:45.858Z,6.20
2022-09-06T02:28:45.848Z,8.20
2022-09-06T02:29:45.843Z,9.10
2022-09-06T02:30:45.909Z,9.00
2022-09-06T02:31:45.831Z,7.40
2022-09-06T02:32:45.922Z,6.90
2022-09-06T02:33:45.817Z,8.10
2022-09-06T02:34:45.810Z,7.70
2022-09-06T02:35:45.804Z,8.50
2022-09-06T02:36:45.797Z,7.60
2022-09-06T02:37:45.792Z,12.80
2022-09-06T02:38:45.786Z,9.40
2022-09-06T02:39:45.855Z,6.50
2022-09-06T02:40:45.769Z,7.00
2022-09-06T02:41:45.779Z,7.90
2022-09-06T02:42:45.755Z,7.40
2022-09-06T02:43:45.749Z,8.80
2022-09-06T02:44:45.741Z,8.20
2022-09-06T02:45:45.756Z,8.40
2022-09-06T02:46:45.728Z,7.50
2022-09-06T02:47:45.722Z,8.40
2022-09-06T02:48:45.713Z,7.90
2022-09-06T02:49:45.725Z,8.20
2022-09-06T02:50:45.700Z,9.10
2022-09-06T02:51:45.694Z,7.60
2022-09-06T02:52:45.686Z,9.40
2022-09-06T02:53:45.682Z,9.20
2022-09-06T02:54:45.673Z,8.30
2022-09-06T02:55:45.666Z,8.90
2022-09-06T02:56:50.215Z,7.60
2022-09-06T02:57:45.654Z,11.00
2022-09-06T02:58:45.645Z,7.60
2022-09-06T02:59:45.638Z,7.40
2022-09-06T03:00:45.630Z,6.80
2022-09-06T03:01:45.718Z,6.80
2022-09-06T03:02:45.718Z,8.00
2022-09-06T03:03:45.613Z,7.70
2022-09-06T03:04:45.602Z,7.60
2022-09-06T03:05:45.600Z,8.00
2022-09-06T03:06:45.591Z,8.50
2022-09-06T03:07:45.583Z,7.50
2022-09-06T03:08:45.576Z,10.30
2022-09-06T03:09:45.571Z,7.70
2022-09-06T03:10:45.562Z,9.60
2022-09-06T03:11:45.557Z,8.70
2022-09-06T03:12:45.548Z,8.10
2022-09-06T03:13:45.542Z,7.70
2022-09-06T03:14:45.539Z,8.60
2022-09-06T03:15:45.529Z,10.20
2022-09-06T03:16:45.533Z,6.90
2022-09-06T03:17:45.515Z,9.10
2022-09-06T03:18:45.506Z,8.80
2022-09-06T03:19:45.502Z,7.90
2022-09-06T03:20:45.494Z,10.90
2022-09-06T03:21:45.487Z,7.90
2022-09-06T03:22:45.479Z,7.10
2022-09-06T03:23:45.474Z,9.00
2022-09-06T03:24:45.464Z,8.60
2022-09-06T03:25:45.460Z,8.40
2022-09-06T03:26:45.454Z,9.50
2022-09-06T03:27:45.445Z,8.50
2022-09-06T03:28:45.538Z,8.30
2022-09-06T03:29:45.432Z,10.20
2022-09-06T03:30:45.492Z,8.50
2022-09-06T03:31:45.416Z,6.80
2022-09-06T03:32:45.412Z,8.20
2022-09-06T03:33:45.403Z,7.60
2022-09-06T03:34:45.397Z,8.40
2022-09-06T03:35:45.390Z,8.20
2022-09-06T03:36:45.384Z,6.60
2022-09-06T03:37:45.476Z,10.70
2022-09-06T03:38:45.373Z,9.70
2022-09-06T03:39:45.413Z,9.00
2022-09-06T03:40:45.355Z,8.00
2022-09-06T03:41:45.346Z,9.00
2022-09-06T03:42:45.344Z,10.50
2022-09-06T03:43:45.337Z,8.40
2022-09-06T03:44:45.328Z,9.60
2022-09-06T03:45:45.369Z,7.80
2022-09-06T03:46:45.314Z,10.50
2022-09-06T03:47:45.307Z,8.20
2022-09-06T03:48:45.300Z,9.60
2022-09-06T03:49:45.292Z,9.00
2022-09-06T03:50:45.301Z,8.50
2022-09-06T03:51:45.378Z,7.50
2022-09-06T03:52:45.272Z,8.20
2022-09-06T03:53:45.263Z,8.10
2022-09-06T03:54:45.260Z,7.40
2022-09-06T03:55:45.253Z,7.40
2022-09-06T03:56:45.245Z,9.00
2022-09-06T03:57:45.235Z,7.70
2022-09-06T03:58:45.231Z,8.10
2022-09-06T03:59:45.222Z,7.40
2022-09-06T04:00:45.368Z,9.00
2022-09-06T04:01:45.262Z,8.40
2022-09-06T04:02:45.256Z,7.90
2022-09-06T04:03:45.194Z,8.20
2022-09-06T04:04:45.190Z,8.40
2022-09-06T04:05:45.181Z,7.40
2022-09-06T04:06:45.176Z,7.70
2022-09-06T04:07:45.167Z,8.10
2022-09-06T04:08:45.163Z,8.90
2022-09-06T04:09:45.154Z,8.90
2022-09-06T04:10:45.148Z,7.60
2022-09-06T04:11:45.291Z,8.00
2022-09-06T04:12:45.135Z,9.00
2022-09-06T04:13:45.128Z,9.80
2022-09-06T04:14:45.122Z,8.40
2022-09-06T04:15:45.115Z,7.70
2022-09-06T04:16:45.150Z,8.70
2022-09-06T04:17:45.101Z,8.50
2022-09-06T04:18:45.094Z,8.40
2022-09-06T04:19:45.082Z,7.20
2022-09-06T04:20:45.079Z,8.20
2022-09-06T04:21:45.069Z,7.20
2022-09-06T04:22:45.064Z,7.80
2022-09-06T04:23:45.057Z,7.50
2022-09-06T04:24:45.149Z,7.10
2022-09-06T04:25:45.041Z,9.60
2022-09-06T04:26:45.037Z,8.20
2022-09-06T04:27:45.028Z,8.90
2022-09-06T04:28:45.022Z,8.10
2022-09-06T04:29:45.013Z,7.30
2022-09-06T04:30:45.009Z,7.80
2022-09-06T04:31:45.042Z,8.80
2022-09-06T04:32:44.995Z,7.40
2022-09-06T04:33:44.985Z,8.50
2022-09-06T04:34:44.981Z,11.00
2022-09-06T04:35:44.971Z,10.50
2022-09-06T04:36:48.303Z,8.00
2022-09-06T04:37:44.958Z,11.10
2022-09-06T04:38:44.978Z,9.80
2022-09-06T04:39:44.984Z,8.80
2022-09-06T04:40:44.938Z,9.70
2022-09-06T04:41:44.929Z,10.10
2022-09-06T04:42:44.923Z,8.50
2022-09-06T04:43:44.923Z,9.10
2022-09-06T04:44:44.910Z,9.80
2022-09-06T04:45:44.953Z,7.90
2022-09-06T04:46:44.895Z,8.40
2022-09-06T04:47:44.899Z,8.80
2022-09-06T04:48:44.881Z,7.20
2022-09-06T04:49:44.872Z,8.80
2022-09-06T04:50:44.868Z,12.90
2022-09-06T04:51:44.857Z,7.10
2022-09-06T04:52:44.867Z,7.80
2022-09-06T04:53:44.844Z,9.20
2022-09-06T04:54:44.844Z,8.20
2022-09-06T04:55:44.830Z,7.70
2022-09-06T04:56:44.824Z,7.40
2022-09-06T04:57:48.453Z,12.00
2022-09-06T04:58:44.810Z,8.40
2022-09-06T04:59:44.804Z,9.50
2022-09-06T05:00:44.938Z,10.10
2022-09-06T05:01:44.787Z,13.60
2022-09-06T05:02:44.860Z,9.80
2022-09-06T05:03:44.775Z,11.20
2022-09-06T05:04:44.768Z,10.50
2022-09-06T05:05:44.772Z,9.10
2022-09-06T05:06:44.755Z,11.80
2022-09-06T05:07:44.744Z,10.10
2022-09-06T05:08:44.739Z,10.50
2022-09-06T05:09:44.733Z,10.70
2022-09-06T05:10:44.728Z,10.60
2022-09-06T05:11:44.714Z,10.40
2022-09-06T05:12:44.711Z,12.40
2022-09-06T05:13:44.701Z,14.40
2022-09-06T05:14:44.899Z,11.50
2022-09-06T05:15:44.687Z,11.00
2022-09-06T05:16:44.724Z,12.00
2022-09-06T05:17:44.674Z,10.90
2022-09-06T05:18:44.670Z,12.20
2022-09-06T05:19:44.658Z,10.00
2022-09-06T05:20:44.654Z,9.90
2022-09-06T05:21:44.646Z,11.70
2022-09-06T05:22:44.641Z,9.60
2022-09-06T05:23:44.631Z,11.40
2022-09-06T05:24:44.625Z,10.70
2022-09-06T05:25:44.617Z,10.10
2022-09-06T05:26:44.611Z,10.30
2022-09-06T05:27:44.614Z,9.30
2022-09-06T05:28:44.599Z,10.70
2022-09-06T05:29:44.588Z,9.80
2022-09-06T05:30:44.585Z,12.20
2022-09-06T05:31:44.600Z,12.40
2022-09-06T05:32:44.569Z,13.30
2022-09-06T05:33:44.559Z,13.70
2022-09-06T05:34:44.554Z,10.40
2022-09-06T05:35:44.545Z,11.20
2022-09-06T05:36:44.540Z,11.30
2022-09-06T05:37:44.531Z,10.70
2022-09-06T05:38:44.527Z,11.30
2022-09-06T05:39:44.581Z,11.90
2022-09-06T05:40:44.512Z,11.80
2022-09-06T05:41:44.502Z,10.20
2022-09-06T05:42:44.511Z,10.10
2022-09-06T05:43:44.490Z,9.40
2022-09-06T05:44:44.484Z,9.20
2022-09-06T05:45:44.482Z,12.00
2022-09-06T05:46:44.470Z,10.20
2022-09-06T05:47:44.460Z,10.80
2022-09-06T05:48:44.466Z,11.40
2022-09-06T05:49:44.448Z,9.30
2022-09-06T05:50:44.457Z,9.60
2022-09-06T05:51:44.435Z,9.60
2022-09-06T05:52:44.441Z,12.50
2022-09-06T05:53:44.425Z,11.90
2022-09-06T05:54:44.423Z,11.20
2022-09-06T05:55:44.404Z,11.10
2022-09-06T05:56:44.410Z,9.40
2022-09-06T05:57:44.399Z,11.10
2022-09-06T05:58:44.489Z,9.30
2022-09-06T05:59:44.388Z,10.40
2022-09-06T06:00:44.374Z,11.80
2022-09-06T06:01:44.563Z,9.30
2022-09-06T06:02:44.456Z,12.60
2022-09-06T06:03:44.353Z,8.80
2022-09-06T06:04:44.348Z,10.40
2022-09-06T06:05:44.340Z,8.90
2022-09-06T06:06:44.342Z,10.80
2022-09-06T06:07:44.327Z,9.40
2022-09-06T06:08:44.320Z,12.40
2022-09-06T06:09:44.313Z,10.70
2022-09-06T06:10:44.308Z,9.20
2022-09-06T06:11:44.300Z,9.20
2022-09-06T06:12:44.296Z,10.20
2022-09-06T06:13:44.288Z,8.80
2022-09-06T06:14:44.485Z,8.20
2022-09-06T06:15:44.325Z,9.10
2022-09-06T06:16:44.365Z,9.20
2022-09-06T06:17:44.262Z,9.00
2022-09-06T06:18:45.941Z,9.60
2022-09-06T06:19:44.248Z,11.40
2022-09-06T06:20:44.245Z,11.30
2022-09-06T06:21:44.235Z,10.80
2022-09-06T06:22:44.233Z,9.30
2022-09-06T06:23:44.226Z,10.10
2022-09-06T06:24:44.220Z,11.70
2022-09-06T06:25:44.212Z,9.10
2022-09-06T06:26:44.207Z,11.60
2022-09-06T06:27:44.200Z,11.80
2022-09-06T06:28:44.196Z,9.00
2022-09-06T06:29:44.188Z,9.50
2022-09-06T06:30:44.185Z,8.10
2022-09-06T06:31:44.252Z,8.80
2022-09-06T06:32:44.171Z,11.50
2022-09-06T06:33:44.164Z,8.70
2022-09-06T06:34:44.165Z,9.00
2022-09-06T06:35:44.151Z,7.20
2022-09-06T06:36:44.149Z,7.60
2022-09-06T06:37:44.141Z,6.70
2022-09-06T06:38:44.142Z,9.60
2022-09-06T06:39:44.191Z,8.30
2022-09-06T06:40:44.126Z,9.10
2022-09-06T06:41:44.119Z,12.00
2022-09-06T06:42:44.216Z,6.80
2022-09-06T06:43:44.107Z,9.30
2022-09-06T06:44:44.105Z,8.90
2022-09-06T06:45:44.140Z,7.00
2022-09-06T06:46:44.099Z,8.00
2022-09-06T06:47:44.089Z,6.00
2022-09-06T06:48:44.083Z,6.10
2022-09-06T06:49:44.077Z,7.00
2022-09-06T06:50:44.075Z,7.50
2022-09-06T06:51:44.067Z,7.20
2022-09-06T06:52:44.064Z,6.50
2022-09-06T06:53:44.059Z,5.40
2022-09-06T06:54:44.056Z,7.30
2022-09-06T06:55:44.046Z,9.30
2022-09-06T06:56:44.045Z,9.10
2022-09-06T06:57:44.038Z,7.90
2022-09-06T06:58:44.034Z,7.90
2022-09-06T06:59:44.027Z,8.40
2022-09-06T07:00:44.178Z,7.40
2022-09-06T07:01:44.164Z,6.70
2022-09-06T07:02:44.015Z,7.00
2022-09-06T07:03:44.007Z,7.20
2022-09-06T07:04:44.005Z,7.80
2022-09-06T07:07:43.988Z,6.60
2022-09-06T07:08:43.987Z,7.50
2022-09-06T07:10:43.978Z,7.70
2022-09-06T07:11:44.017Z,7.90
2022-09-06T07:12:43.967Z,8.80
2022-09-06T07:13:43.959Z,9.00
2022-09-06T07:14:43.957Z,9.10
2022-09-06T07:15:43.958Z,9.70
2022-09-06T07:16:43.989Z,8.10
2022-09-06T07:17:43.945Z,7.60
2022-09-06T07:18:43.938Z,13.00
2022-09-06T07:21:43.925Z,8.30
2022-09-06T07:22:43.973Z,9.80
2022-09-06T07:24:43.914Z,9.30
2022-09-06T07:25:43.906Z,10.90
2022-09-06T07:28:43.894Z,12.60
2022-09-06T07:29:43.891Z,12.20
2022-09-06T07:30:43.884Z,12.40
2022-09-06T07:32:43.886Z,9.80
2022-09-06T07:33:43.870Z,9.80
2022-09-06T07:34:43.868Z,7.80
2022-09-06T07:35:43.861Z,8.30
2022-09-06T07:36:43.863Z,7.60
2022-09-06T07:37:43.853Z,10.50
2022-09-06T07:38:43.853Z,8.30
2022-09-06T07:39:43.927Z,7.30
2022-09-06T07:40:43.859Z,10.40
2022-09-06T07:41:43.837Z,9.90
2022-09-06T07:42:43.837Z,9.60
2022-09-06T07:43:43.829Z,9.00
2022-09-06T07:44:43.828Z,10.00
2022-09-06T07:45:43.823Z,12.10
2022-09-06T07:46:44.147Z,8.60
2022-09-06T07:47:59.336Z,9.70
2022-09-06T07:48:43.810Z,9.60
2022-09-06T07:51:43.850Z,12.80
2022-09-06T07:53:43.790Z,9.20
2022-09-06T07:54:43.785Z,10.20
2022-09-06T07:55:43.780Z,13.40
2022-09-06T07:56:43.774Z,10.90
2022-09-06T07:57:43.771Z,11.40
2022-09-06T07:58:43.765Z,10.40
2022-09-06T07:59:43.763Z,11.50
2022-09-06T08:00:43.815Z,12.10
2022-09-06T08:01:43.881Z,12.10
2022-09-06T08:02:43.847Z,13.90
2022-09-06T08:03:43.742Z,11.20
2022-09-06T08:04:43.735Z,12.60
2022-09-06T08:06:11.604Z,11.70
2022-09-06T08:07:43.723Z,12.20
2022-09-06T08:08:59.619Z,12.70
2022-09-06T08:09:43.711Z,11.30
2022-09-06T08:10:43.706Z,11.20
2022-09-06T08:11:43.701Z,13.00
2022-09-06T08:12:43.743Z,11.00
2022-09-06T08:13:43.690Z,11.60
2022-09-06T08:14:43.685Z,12.90
2022-09-06T08:15:43.688Z,10.10
2022-09-06T08:16:43.752Z,13.40
2022-09-06T08:17:43.669Z,11.20
2022-09-06T08:18:43.665Z,10.80
2022-09-06T08:19:43.658Z,12.80
2022-09-06T08:20:43.666Z,11.60
2022-09-06T08:21:43.654Z,14.60
2022-09-06T08:22:43.642Z,10.90
2022-09-06T08:23:43.640Z,8.60
2022-09-06T08:24:43.633Z,10.30
2022-09-06T08:25:43.628Z,9.40
2022-09-06T08:26:43.627Z,9.80
2022-09-06T08:27:43.616Z,12.90
2022-09-06T08:28:43.608Z,11.70
2022-09-06T08:29:43.606Z,10.80
2022-09-06T08:30:43.600Z,12.20
2022-09-06T08:31:43.676Z,11.70
2022-09-06T08:32:43.589Z,10.70
2022-09-06T08:33:43.586Z,9.70
2022-09-06T08:34:43.580Z,9.70
2022-09-06T08:35:43.574Z,12.20
2022-09-06T08:36:43.568Z,10.90
2022-09-06T08:37:43.563Z,12.20
2022-09-06T08:38:43.557Z,10.50
2022-09-06T08:39:43.628Z,11.10
2022-09-06T08:40:43.545Z,11.30
2022-09-06T08:41:43.541Z,10.40
2022-09-06T08:42:43.535Z,10.70
2022-09-06T08:43:43.694Z,10.50
2022-09-06T08:44:59.063Z,10.00
2022-09-06T08:45:43.523Z,11.70
2022-09-06T08:46:43.603Z,9.60
2022-09-06T08:47:43.510Z,10.50
2022-09-06T08:48:43.605Z,11.30
2022-09-06T08:49:43.501Z,9.30
2022-09-06T08:50:43.495Z,9.60
2022-09-06T08:51:43.490Z,10.50
2022-09-06T08:52:49.765Z,11.10
2022-09-06T08:53:43.479Z,8.80
2022-09-06T08:54:43.479Z,15.40
2022-09-06T08:55:43.469Z,8.50
2022-09-06T08:56:43.464Z,11.90
2022-09-06T08:57:43.458Z,10.90
2022-09-06T08:58:43.452Z,8.40
2022-09-06T08:59:43.449Z,9.40
2022-09-06T09:00:43.501Z,9.70
2022-09-06T09:01:43.457Z,8.10
2022-09-06T09:02:43.433Z,9.70
2022-09-06T09:03:43.428Z,11.20
2022-09-06T09:04:43.424Z,9.30
2022-09-06T09:05:43.419Z,9.40
2022-09-06T09:06:43.413Z,8.80
2022-09-06T09:07:43.422Z,11.20
2022-09-06T09:08:43.402Z,10.20
2022-09-06T09:09:43.398Z,10.70
2022-09-06T09:10:43.392Z,9.40
2022-09-06T09:11:43.388Z,9.00
2022-09-06T09:12:43.383Z,11.00
2022-09-06T09:13:43.380Z,9.10
2022-09-06T09:14:43.379Z,11.50
2022-09-06T09:15:43.370Z,8.60
2022-09-06T09:16:43.445Z,9.20
2022-09-06T09:17:43.361Z,8.20
2022-09-06T09:18:43.355Z,9.70
2022-09-06T09:19:43.352Z,13.00
2022-09-06T09:20:43.345Z,9.80
2022-09-06T09:21:43.343Z,10.00
2022-09-06T09:22:43.338Z,13.60
2022-09-06T09:23:43.334Z,9.00
2022-09-06T09:24:43.334Z,10.60
2022-09-06T09:25:43.325Z,11.50
2022-09-06T09:26:43.319Z,10.60
2022-09-06T09:27:43.317Z,10.80
2022-09-06T09:28:43.310Z,12.40
2022-09-06T09:31:43.423Z,9.00
2022-09-06T09:32:43.296Z,8.90
2022-09-06T09:33:43.295Z,10.40
2022-09-06T09:34:43.287Z,9.40
2022-09-06T09:35:43.284Z,11.20
2022-09-06T09:37:46.864Z,8.30
2022-09-06T09:38:43.272Z,10.90
2022-09-06T09:39:43.324Z,9.70
2022-09-06T09:40:43.264Z,7.90
2022-09-06T09:41:43.262Z,9.50
2022-09-06T09:42:43.256Z,9.30
2022-09-06T09:43:43.256Z,12.40
2022-09-06T09:44:43.250Z,11.60
2022-09-06T09:45:43.349Z,8.60
2022-09-06T09:46:43.300Z,6.70
2022-09-06T09:47:43.241Z,10.20
2022-09-06T09:48:43.235Z,7.80
2022-09-06T09:49:43.233Z,7.80
2022-09-06T09:50:43.328Z,6.90
2022-09-06T09:51:43.229Z,7.50
2022-09-06T09:52:43.221Z,8.30
2022-09-06T09:53:43.220Z,9.70
2022-09-06T09:54:43.215Z,7.90
2022-09-06T09:55:43.212Z,7.10
2022-09-06T09:56:43.208Z,10.70
2022-09-06T09:57:43.206Z,7.50
2022-09-06T09:58:43.201Z,9.80
2022-09-06T09:59:43.199Z,7.90
2022-09-06T10:00:43.389Z,8.20
2022-09-06T10:01:43.193Z,7.70
2022-09-06T10:02:43.190Z,7.90
2022-09-06T10:04:43.612Z,10.10
2022-09-06T10:05:43.183Z,11.10
2022-09-06T10:07:43.178Z,8.90
2022-09-06T10:08:43.170Z,6.60
2022-09-06T10:09:43.170Z,6.60
2022-09-06T10:10:43.180Z,7.70
2022-09-06T10:11:43.164Z,9.90
2022-09-06T10:12:43.161Z,6.50
2022-09-06T10:13:43.159Z,7.60
2022-09-06T10:14:43.158Z,10.90
2022-09-06T10:15:43.192Z,8.80
2022-09-06T10:16:43.149Z,9.00
2022-09-06T10:17:43.147Z,7.20
2022-09-06T10:18:43.151Z,7.80
2022-09-06T10:19:43.151Z,7.50
2022-09-06T10:20:43.140Z,6.50
2022-09-06T10:21:43.139Z,10.00
2022-09-06T10:22:43.135Z,7.90
2022-09-06T10:24:43.138Z,6.90
2022-09-06T10:25:46.223Z,8.90
2022-09-06T10:26:43.125Z,7.50
2022-09-06T10:28:01.544Z,11.90
2022-09-06T10:28:43.169Z,8.20
2022-09-06T10:29:43.123Z,11.10
2022-09-06T10:30:43.120Z,6.20
2022-09-06T10:31:43.209Z,7.60
2022-09-06T10:32:43.111Z,6.50
2022-09-06T10:33:43.114Z,7.20
2022-09-06T10:34:43.106Z,8.10
2022-09-06T10:35:43.113Z,7.40
2022-09-06T10:36:43.112Z,8.80
2022-09-06T10:37:43.103Z,10.20
2022-09-06T10:38:43.097Z,6.90
2022-09-06T10:39:43.155Z,8.20
2022-09-06T10:40:43.097Z,5.80
2022-09-06T10:41:43.097Z,4.70
2022-09-06T10:42:43.090Z,7.30
2022-09-06T10:43:43.089Z,8.40
2022-09-06T10:44:43.086Z,8.80
2022-09-06T10:45:43.087Z,6.30
2022-09-06T10:46:43.123Z,7.00
2022-09-06T10:47:43.082Z,5.60
2022-09-06T10:48:43.091Z,6.30
2022-09-06T10:49:43.078Z,6.50
2022-09-06T10:50:43.075Z,6.40
2022-09-06T10:51:43.074Z,4.40
2022-09-06T10:52:43.171Z,5.00
2022-09-06T10:53:43.070Z,5.90
2022-09-06T10:54:43.076Z,5.90
2022-09-06T10:55:47.348Z,6.10
2022-09-06T10:56:43.062Z,6.70
2022-09-06T10:59:43.160Z,7.00
2022-09-06T11:00:43.057Z,5.30
2022-09-06T11:01:43.126Z,6.90
2022-09-06T11:02:43.091Z,6.40
2022-09-06T11:04:02.140Z,5.30
2022-09-06T11:05:43.062Z,8.20
2022-09-06T11:06:43.046Z,6.10
2022-09-06T11:09:43.039Z,5.90
2022-09-06T11:10:43.037Z,4.80
2022-09-06T11:11:43.037Z,8.10
2022-09-06T11:12:43.130Z,4.50
2022-09-06T11:13:43.032Z,5.40
2022-09-06T11:14:43.026Z,7.30
2022-09-06T11:15:43.070Z,5.60
2022-09-06T11:16:43.024Z,8.70
2022-09-06T11:17:43.030Z,7.90
2022-09-06T11:18:43.019Z,6.10
2022-09-06T11:19:43.017Z,7.40
2022-09-06T11:20:43.016Z,7.10
2022-09-06T11:21:43.013Z,6.90
2022-09-06T11:22:43.008Z,5.10
2022-09-06T11:23:43.009Z,6.50
2022-09-06T11:24:43.007Z,8.70
2022-09-06T11:25:43.006Z,6.80
2022-09-06T11:26:43.000Z,5.40
2022-09-06T11:27:43.002Z,9.90
2022-09-06T11:28:42.994Z,5.00
2022-09-06T11:29:42.995Z,7.60
2022-09-06T11:30:43.062Z,8.10
2022-09-06T11:32:42.984Z,6.20
2022-09-06T11:33:42.988Z,7.80
2022-09-06T11:34:42.979Z,6.70
2022-09-06T11:35:42.978Z,6.30
2022-09-06T11:36:42.974Z,6.70
2022-09-06T11:37:42.980Z,7.10
2022-09-06T11:38:42.969Z,5.00
2022-09-06T11:40:42.962Z,6.60
2022-09-06T11:41:42.963Z,5.50
2022-09-06T11:42:42.958Z,8.80
2022-09-06T11:43:42.956Z,6.40
2022-09-06T11:44:42.953Z,6.00
2022-09-06T11:45:42.951Z,6.30
2022-09-06T11:46:42.973Z,7.20
2022-09-06T11:47:42.945Z,5.60
2022-09-06T11:48:42.939Z,6.90
2022-09-06T11:49:43.140Z,7.40
2022-09-06T11:50:42.935Z,8.90
2022-09-06T11:51:42.932Z,7.60
2022-09-06T11:52:42.928Z,5.30
2022-09-06T11:53:42.927Z,5.10
2022-09-06T11:54:42.924Z,6.30
2022-09-06T11:55:42.921Z,6.50
2022-09-06T11:56:42.916Z,6.70
2022-09-06T11:57:42.915Z,7.30
2022-09-06T11:58:42.911Z,7.30
2022-09-06T11:59:42.914Z,6.70
2022-09-06T12:00:42.903Z,8.20
2022-09-06T12:01:42.902Z,6.20
2022-09-06T12:02:43.099Z,7.10
2022-09-06T12:04:42.890Z,6.90
2022-09-06T12:05:42.900Z,8.60
2022-09-06T12:06:42.887Z,8.60
2022-09-06T12:07:42.877Z,7.00
2022-09-06T12:08:42.878Z,4.40
2022-09-06T12:09:42.872Z,4.50
2022-09-06T12:10:42.871Z,5.70
2022-09-06T12:11:42.864Z,5.70
2022-09-06T12:12:42.862Z,3.90
2022-09-06T12:13:42.857Z,4.00
2022-09-06T12:14:42.855Z,4.60
2022-09-06T12:15:42.892Z,4.70
2022-09-06T12:16:42.845Z,3.90
2022-09-06T12:17:42.952Z,4.20
2022-09-06T12:18:42.838Z,4.40
2022-09-06T12:19:44.534Z,7.00
2022-09-06T12:20:42.830Z,3.00
2022-09-06T12:21:42.822Z,3.30
2022-09-06T12:22:42.823Z,3.20
2022-09-06T12:23:42.813Z,3.60
2022-09-06T12:24:42.812Z,3.20
2022-09-06T12:25:42.804Z,2.20
2022-09-06T12:26:42.803Z,3.10
2022-09-06T12:27:42.795Z,3.80
2022-09-06T12:28:42.792Z,3.40
2022-09-06T12:29:42.786Z,4.60
2022-09-06T12:30:42.784Z,2.50
2022-09-06T12:31:42.852Z,4.10
2022-09-06T12:32:42.774Z,2.90
2022-09-06T12:33:42.768Z,2.70
2022-09-06T12:34:42.764Z,3.20
2022-09-06T12:35:58.420Z,5.00
2022-09-06T12:36:42.756Z,3.60
2022-09-06T12:37:42.750Z,4.20
2022-09-06T12:38:42.743Z,5.30
2022-09-06T12:39:42.773Z,3.60
2022-09-06T12:40:42.732Z,3.80
2022-09-06T12:41:43.497Z,5.20
2022-09-06T12:42:42.724Z,3.70
2022-09-06T12:43:42.715Z,3.00
2022-09-06T12:44:42.712Z,3.60
2022-09-06T12:45:42.706Z,6.50
2022-09-06T12:46:42.728Z,4.10
2022-09-06T12:47:42.695Z,3.10
2022-09-06T12:48:42.690Z,3.30
2022-09-06T12:49:42.686Z,2.90
2022-09-06T12:50:42.683Z,4.00
2022-09-06T12:51:42.672Z,5.00
2022-09-06T12:52:42.669Z,3.10
2022-09-06T12:53:42.661Z,2.90
2022-09-06T12:54:42.659Z,4.50
2022-09-06T12:55:42.650Z,4.70
2022-09-06T12:56:42.646Z,4.20
2022-09-06T12:57:42.640Z,3.60
2022-09-06T12:58:42.635Z,4.70
2022-09-06T12:59:42.630Z,4.80
2022-09-06T13:00:42.624Z,2.40
2022-09-06T13:01:42.762Z,3.50
2022-09-06T13:02:42.777Z,5.00
2022-09-06T13:03:42.607Z,5.50
2022-09-06T13:04:42.602Z,3.30
2022-09-06T13:05:42.597Z,2.50
2022-09-06T13:06:42.591Z,2.90
2022-09-06T13:07:42.584Z,3.10
2022-09-06T13:08:42.581Z,4.70
2022-09-06T13:09:42.573Z,4.80
2022-09-06T13:10:42.570Z,4.70
2022-09-06T13:11:42.562Z,5.10
2022-09-06T13:12:42.559Z,5.60
2022-09-06T13:13:42.551Z,8.20
2022-09-06T13:14:42.548Z,4.80
2022-09-06T13:15:42.590Z,4.60
2022-09-06T13:16:42.536Z,2.60
2022-09-06T13:17:42.527Z,3.90
2022-09-06T13:18:42.525Z,4.50
2022-09-06T13:19:42.530Z,4.90
2022-09-06T13:20:42.514Z,2.30
2022-09-06T13:21:42.507Z,2.60
2022-09-06T13:22:42.503Z,3.60
2022-09-06T13:23:42.496Z,2.10
2022-09-06T13:24:46.528Z,3.10
2022-09-06T13:25:42.494Z,5.20
2022-09-06T13:26:42.481Z,2.10
2022-09-06T13:27:42.473Z,3.70
2022-09-06T13:28:42.469Z,3.70
2022-09-06T13:29:42.463Z,5.50
2022-09-06T13:30:44.282Z,3.10
2022-09-06T13:31:42.493Z,2.30
2022-09-06T13:32:42.448Z,2.60
2022-09-06T13:33:42.440Z,5.40
2022-09-06T13:34:42.437Z,3.90
2022-09-06T13:35:42.430Z,2.50
2022-09-06T13:36:42.427Z,5.90
2022-09-06T13:37:42.420Z,3.40
2022-09-06T13:38:42.417Z,3.80
2022-09-06T13:39:42.433Z,2.70
2022-09-06T13:41:07.070Z,2.90
2022-09-06T13:41:42.399Z,3.20